createdAt,value
2022-10-18T00:00:06.117Z,5.41
2022-10-18T00:02:32.801Z,5.34
2022-10-18T00:04:59.513Z,5.29
2022-10-18T00:07:26.206Z,5.20
2022-10-18T00:09:52.796Z,5.07
2022-10-18T00:12:19.433Z,4.94
2022-10-18T00:14:50.177Z,4.95
2022-10-18T00:17:17.032Z,4.94
2022-10-18T00:19:43.982Z,4.89
2022-10-18T00:22:10.643Z,4.97
2022-10-18T00:24:37.278Z,5.05
2022-10-18T00:27:04.136Z,5.07
2022-10-18T00:29:30.730Z,5.03
2022-10-18T00:31:57.381Z,4.96
2022-10-18T00:34:23.967Z,4.99
2022-10-18T00:36:50.757Z,4.96
2022-10-18T00:39:19.654Z,4.95
2022-10-18T00:41:47.244Z,4.96
2022-10-18T00:44:13.851Z,5.05
2022-10-18T00:46:43.626Z,5.02
2022-10-18T00:49:23.393Z,4.92
2022-10-18T00:51:55.258Z,4.90
2022-10-18T00:54:23.172Z,4.86
2022-10-18T00:56:50.015Z,4.80
2022-10-18T00:59:18.413Z,4.75
2022-10-18T01:01:46.110Z,4.79
2022-10-18T01:04:15.208Z,4.68
2022-10-18T01:09:51.364Z,4.66
2022-10-18T01:12:51.996Z,4.41
2022-10-18T01:15:25.956Z,4.32
2022-10-18T01:18:05.006Z,4.30
2022-10-18T01:20:43.788Z,4.35
2022-10-18T01:23:31.167Z,4.40
2022-10-18T01:26:26.795Z,4.46
2022-10-18T01:28:59.398Z,4.34
2022-10-18T01:31:33.102Z,4.17
2022-10-18T01:34:07.125Z,4.14
2022-10-18T01:36:41.299Z,4.10
2022-10-18T01:39:13.642Z,4.10
2022-10-18T01:41:45.658Z,4.01
2022-10-18T01:44:19.400Z,3.99
2022-10-18T01:46:47.142Z,4.02
2022-10-18T01:49:16.182Z,4.08
2022-10-18T01:51:42.799Z,4.01
2022-10-18T01:54:13.103Z,4.06
2022-10-18T01:57:03.657Z,3.95
2022-10-18T01:59:54.583Z,3.87
2022-10-18T02:02:58.752Z,3.93
2022-10-18T02:05:28.018Z,3.88
2022-10-18T02:08:23.403Z,3.75
2022-10-18T02:10:56.246Z,3.71
2022-10-18T02:13:26.606Z,3.90
2022-10-18T02:15:59.495Z,3.99
2022-10-18T02:18:35.486Z,4.06
2022-10-18T02:21:05.668Z,4.13
2022-10-18T02:23:34.112Z,4.17
2022-10-18T02:26:01.325Z,4.10
2022-10-18T02:28:28.115Z,4.01
2022-10-18T02:31:00.378Z,4.10
2022-10-18T02:34:01.371Z,4.24
2022-10-18T02:36:39.187Z,4.22
2022-10-18T02:39:11.736Z,4.30
2022-10-18T02:41:38.625Z,4.15
2022-10-18T02:44:05.248Z,4.09
2022-10-18T02:46:32.031Z,4.03
2022-10-18T02:48:58.669Z,3.82
2022-10-18T02:51:25.547Z,3.75
2022-10-18T02:53:52.284Z,3.74
2022-10-18T02:56:19.155Z,3.60
2022-10-18T02:58:45.811Z,3.82
2022-10-18T03:01:12.517Z,3.66
2022-10-18T03:03:44.825Z,3.61
2022-10-18T03:06:11.491Z,3.63
2022-10-18T03:08:38.323Z,3.52
2022-10-18T03:11:22.723Z,3.55
2022-10-18T03:13:56.367Z,3.68
2022-10-18T03:16:43.404Z,3.76
2022-10-18T03:19:20.990Z,3.74
2022-10-18T03:21:47.869Z,3.80
2022-10-18T03:24:17.765Z,3.82
2022-10-18T03:26:44.417Z,3.88
2022-10-18T03:29:11.603Z,3.87
2022-10-18T03:31:41.781Z,3.86
2022-10-18T03:34:08.498Z,3.76
2022-10-18T03:36:35.184Z,3.76
2022-10-18T03:39:01.799Z,3.85
2022-10-18T03:41:28.447Z,3.80
2022-10-18T03:43:55.115Z,3.64
2022-10-18T03:46:21.675Z,3.51
2022-10-18T03:48:48.378Z,3.59
2022-10-18T03:51:24.074Z,3.59
2022-10-18T03:53:50.680Z,3.60
2022-10-18T03:56:17.349Z,3.66
2022-10-18T03:58:57.333Z,3.69
2022-10-18T04:01:36.661Z,3.68
2022-10-18T04:04:03.332Z,3.60
2022-10-18T04:06:29.941Z,3.69
2022-10-18T04:08:56.587Z,3.65
2022-10-18T04:11:23.225Z,3.65
2022-10-18T04:13:53.006Z,3.53
2022-10-18T04:16:19.892Z,3.54
2022-10-18T04:18:46.626Z,3.69
2022-10-18T04:21:13.327Z,3.66
2022-10-18T04:23:40.062Z,3.65
2022-10-18T04:26:07.750Z,3.75
2022-10-18T04:28:35.498Z,3.56
2022-10-18T04:31:02.237Z,3.46
2022-10-18T04:33:28.937Z,3.53
2022-10-18T04:35:55.475Z,3.54
2022-10-18T04:38:22.162Z,3.60
2022-10-18T04:40:48.811Z,3.53
2022-10-18T04:43:15.429Z,3.55
2022-10-18T04:45:44.919Z,3.60
2022-10-18T04:48:11.673Z,3.58
2022-10-18T04:50:38.396Z,3.58
2022-10-18T04:53:05.013Z,3.51
2022-10-18T04:55:31.789Z,3.67
2022-10-18T04:57:58.502Z,3.70
2022-10-18T05:00:25.126Z,3.81
2022-10-18T05:02:57.735Z,3.92
2022-10-18T05:05:27.026Z,3.85
2022-10-18T05:07:59.818Z,3.84
2022-10-18T05:10:26.478Z,3.89
2022-10-18T05:12:53.118Z,4.05
2022-10-18T05:15:19.705Z,3.85
2022-10-18T05:17:49.132Z,3.86
2022-10-18T05:20:16.212Z,3.91
2022-10-18T05:22:42.849Z,3.84
2022-10-18T05:25:09.685Z,4.03
2022-10-18T05:27:36.314Z,4.08
2022-10-18T05:30:05.688Z,4.09
2022-10-18T05:32:32.888Z,4.08
2022-10-18T05:34:59.846Z,4.08
2022-10-18T05:37:28.387Z,4.10
2022-10-18T05:39:55.288Z,4.05
2022-10-18T05:42:22.059Z,4.06
2022-10-18T05:44:48.683Z,3.98
2022-10-18T05:47:18.560Z,3.88
2022-10-18T05:49:45.185Z,3.91
2022-10-18T05:52:14.544Z,3.96
2022-10-18T05:54:41.145Z,3.90
2022-10-18T05:57:08.082Z,3.93
2022-10-18T05:59:34.659Z,4.04
2022-10-18T06:02:01.273Z,4.02
2022-10-18T06:04:28.107Z,4.08
2022-10-18T06:06:56.184Z,4.12
2022-10-18T06:09:22.962Z,4.20
2022-10-18T06:11:49.681Z,4.34
2022-10-18T06:14:16.301Z,4.49
2022-10-18T06:16:43.260Z,4.28
2022-10-18T06:19:10.848Z,4.44
2022-10-18T06:21:38.804Z,4.47
2022-10-18T06:24:05.970Z,4.47
2022-10-18T06:26:32.735Z,4.42
2022-10-18T06:28:59.453Z,4.29
2022-10-18T06:31:29.854Z,4.42
2022-10-18T06:34:08.527Z,4.45
2022-10-18T06:36:35.275Z,4.40
2022-10-18T06:39:02.599Z,4.46
2022-10-18T06:41:29.245Z,4.67
2022-10-18T06:43:57.650Z,4.60
2022-10-18T06:46:24.856Z,4.83
2022-10-18T06:48:51.506Z,5.08
2022-10-18T06:51:18.583Z,5.22
2022-10-18T06:53:59.250Z,5.27
2022-10-18T06:56:31.811Z,5.33
2022-10-18T07:01:30.165Z,5.38
2022-10-18T07:03:57.013Z,5.42
2022-10-18T07:06:24.299Z,5.43
2022-10-18T07:08:54.160Z,5.52
2022-10-18T07:11:26.625Z,5.55
2022-10-18T07:13:54.874Z,5.53
2022-10-18T07:16:21.858Z,5.75
2022-10-18T07:18:50.898Z,5.84
2022-10-18T07:21:20.816Z,5.74
2022-10-18T07:23:47.854Z,5.80
2022-10-18T07:26:18.868Z,5.88
2022-10-18T07:28:48.438Z,5.95
2022-10-18T07:31:15.358Z,5.82
2022-10-18T07:33:43.239Z,5.73
2022-10-18T07:36:14.929Z,5.90
2022-10-18T07:38:41.937Z,5.88
2022-10-18T07:41:10.538Z,5.81
2022-10-18T07:43:37.307Z,6.03
2022-10-18T07:46:07.967Z,6.12
2022-10-18T07:48:34.695Z,6.13
2022-10-18T07:51:02.001Z,6.18
2022-10-18T07:53:29.630Z,6.31
2022-10-18T07:56:03.389Z,6.45
2022-10-18T07:58:33.342Z,6.59
2022-10-18T08:01:04.864Z,6.71
2022-10-18T08:03:31.706Z,6.87
2022-10-18T08:05:58.898Z,6.97
2022-10-18T08:08:26.122Z,7.11
2022-10-18T08:10:53.056Z,7.25
2022-10-18T08:13:20.197Z,7.45
2022-10-18T08:15:47.561Z,7.57
2022-10-18T08:18:14.446Z,7.68
2022-10-18T08:20:45.243Z,7.86
2022-10-18T08:23:12.811Z,8.01
2022-10-18T08:25:39.686Z,8.04
2022-10-18T08:28:07.210Z,8.20
2022-10-18T08:30:36.893Z,8.27
2022-10-18T08:33:04.205Z,8.49
2022-10-18T08:35:31.959Z,8.68
2022-10-18T08:37:59.420Z,8.75
2022-10-18T08:40:29.042Z,8.87
2022-10-18T08:43:21.673Z,9.07
2022-10-18T08:45:51.611Z,9.20
2022-10-18T08:48:27.719Z,9.29
2022-10-18T08:50:57.485Z,9.35
2022-10-18T08:54:05.240Z,9.53
2022-10-18T08:56:33.660Z,9.77
2022-10-18T08:59:04.117Z,9.78
2022-10-18T09:01:43.986Z,9.76
2022-10-18T09:04:48.521Z,9.94
2022-10-18T09:07:23.248Z,9.97
2022-10-18T09:10:14.343Z,10.09
2022-10-18T09:12:59.849Z,10.09
2022-10-18T09:15:59.809Z,10.12
2022-10-18T09:19:02.725Z,10.22
2022-10-18T09:22:07.487Z,10.30
2022-10-18T09:24:40.724Z,10.26
2022-10-18T09:27:22.660Z,10.42
2022-10-18T09:30:15.140Z,10.47
2022-10-18T09:33:02.109Z,10.65
2022-10-18T09:35:33.947Z,10.89
2022-10-18T09:38:10.205Z,11.31
2022-10-18T09:40:46.894Z,11.45
2022-10-18T09:43:22.181Z,11.57
2022-10-18T09:45:51.109Z,11.66
2022-10-18T09:48:31.384Z,11.56
2022-10-18T09:51:12.219Z,11.51
2022-10-18T09:53:45.858Z,11.85
2022-10-18T09:56:41.037Z,12.21
2022-10-18T09:59:32.500Z,12.21
2022-10-18T10:01:59.268Z,11.99
2022-10-18T10:04:26.080Z,12.24
2022-10-18T10:06:57.264Z,12.37
2022-10-18T10:09:36.301Z,12.46
2022-10-18T10:12:03.093Z,12.49
2022-10-18T10:14:30.753Z,12.43
2022-10-18T10:17:19.902Z,12.48
2022-10-18T10:20:17.967Z,12.48
2022-10-18T10:22:47.805Z,12.55
2022-10-18T10:25:26.009Z,13.05
2022-10-18T10:27:53.217Z,12.98
2022-10-18T10:30:36.985Z,13.02
2022-10-18T10:33:04.817Z,13.07
2022-10-18T10:35:53.502Z,13.00
2022-10-18T10:38:28.862Z,12.97
2022-10-18T10:40:56.505Z,12.98
2022-10-18T10:43:38.289Z,13.06
2022-10-18T10:46:13.256Z,13.12
2022-10-18T10:48:48.418Z,13.15
2022-10-18T10:51:19.156Z,13.16
2022-10-18T10:54:03.875Z,13.26
2022-10-18T10:56:33.857Z,13.23
2022-10-18T10:59:17.162Z,13.27
2022-10-18T11:01:48.525Z,13.38
2022-10-18T11:04:30.284Z,13.42
2022-10-18T11:07:09.027Z,13.48
2022-10-18T11:09:50.835Z,13.65
2022-10-18T11:12:20.566Z,13.82
2022-10-18T11:14:54.735Z,13.73
2022-10-18T11:17:32.889Z,13.90
2022-10-18T11:20:02.490Z,14.00
2022-10-18T11:22:33.763Z,13.99
2022-10-18T11:25:02.045Z,14.13
2022-10-18T11:27:32.566Z,14.31
2022-10-18T11:30:17.140Z,14.26
2022-10-18T11:33:01.168Z,14.20
2022-10-18T11:35:38.998Z,14.22
2022-10-18T11:38:29.722Z,14.37
2022-10-18T11:40:59.124Z,14.79
2022-10-18T11:44:01.711Z,14.60
2022-10-18T11:46:36.654Z,14.88
2022-10-18T11:49:03.141Z,14.92
2022-10-18T11:52:07.440Z,14.84
2022-10-18T11:57:23.352Z,15.04
2022-10-18T11:59:55.924Z,15.21
2022-10-18T12:02:50.390Z,15.27
2022-10-18T12:05:25.124Z,15.14
2022-10-18T12:07:52.199Z,15.23
2022-10-18T12:10:31.480Z,15.17
2022-10-18T12:13:09.164Z,15.42
2022-10-18T12:15:39.187Z,15.36
2022-10-18T12:18:10.377Z,15.27
2022-10-18T12:20:43.565Z,15.19
2022-10-18T12:23:10.350Z,15.29
2022-10-18T12:25:39.219Z,15.55
2022-10-18T12:28:25.874Z,15.61
2022-10-18T12:31:11.752Z,15.58
2022-10-18T12:33:40.702Z,15.52
2022-10-18T12:36:14.505Z,15.59
2022-10-18T12:38:42.568Z,15.56
2022-10-18T12:41:51.531Z,15.53
2022-10-18T12:47:21.351Z,15.65
2022-10-18T12:49:55.303Z,15.64
2022-10-18T12:52:22.145Z,15.61
2022-10-18T12:55:09.052Z,15.73
2022-10-18T12:57:55.404Z,15.57
2022-10-18T13:00:41.040Z,15.55
2022-10-18T13:03:14.006Z,15.64
2022-10-18T13:05:54.921Z,15.70
2022-10-18T13:08:28.722Z,15.64
2022-10-18T13:11:02.883Z,15.80
2022-10-18T13:13:40.237Z,15.85
2022-10-18T13:16:29.506Z,15.82
2022-10-18T13:19:14.912Z,15.68
2022-10-18T13:21:50.102Z,15.61
2022-10-18T13:24:35.434Z,15.90
2022-10-18T13:27:37.638Z,15.85
2022-10-18T13:30:25.101Z,15.82
2022-10-18T13:33:03.634Z,15.82
2022-10-18T13:36:07.508Z,15.80
2022-10-18T13:38:43.190Z,15.82
2022-10-18T13:41:12.809Z,16.00
2022-10-18T13:43:52.540Z,16.08
2022-10-18T13:46:19.387Z,16.02
2022-10-18T13:48:50.371Z,16.01
2022-10-18T13:51:28.472Z,16.13
2022-10-18T13:53:54.977Z,16.43
2022-10-18T13:56:35.827Z,16.80
2022-10-18T13:59:15.179Z,17.01
2022-10-18T14:01:52.775Z,17.29
2022-10-18T14:04:32.930Z,17.26
2022-10-18T14:07:02.522Z,17.50
2022-10-18T14:09:44.436Z,17.72
2022-10-18T14:12:17.434Z,17.80
2022-10-18T14:15:04.115Z,18.21
2022-10-18T14:17:44.820Z,18.57
2022-10-18T14:20:24.791Z,18.41
2022-10-18T14:23:02.799Z,18.38
2022-10-18T14:25:42.118Z,18.55
2022-10-18T14:28:12.592Z,18.84
2022-10-18T14:30:58.956Z,19.14
2022-10-18T14:33:36.886Z,19.21
2022-10-18T14:36:14.661Z,19.33
2022-10-18T14:38:59.739Z,19.30
2022-10-18T14:41:29.522Z,19.14
2022-10-18T14:44:15.020Z,19.24
2022-10-18T14:46:59.871Z,18.93
2022-10-18T14:49:26.472Z,18.33
2022-10-18T14:51:54.848Z,17.48
2022-10-18T14:54:32.421Z,16.75
2022-10-18T14:57:00.064Z,16.16
2022-10-18T14:59:28.627Z,15.72
2022-10-18T15:01:58.085Z,15.33
2022-10-18T15:04:32.751Z,15.20
2022-10-18T15:07:03.967Z,14.91
2022-10-18T15:09:35.287Z,14.76
2022-10-18T15:12:05.961Z,14.65
2022-10-18T15:14:32.522Z,14.40
2022-10-18T15:17:01.990Z,14.22
2022-10-18T15:19:33.390Z,14.22
2022-10-18T15:25:03.727Z,13.90
2022-10-18T15:27:32.569Z,13.93
2022-10-18T15:30:08.866Z,13.98
2022-10-18T15:32:37.108Z,13.91
2022-10-18T15:37:50.567Z,13.74
2022-10-18T15:40:26.441Z,13.62
2022-10-18T15:42:58.991Z,13.40
2022-10-18T15:45:27.207Z,13.22
2022-10-18T15:48:11.207Z,13.09
2022-10-18T15:50:42.430Z,13.02
2022-10-18T15:53:20.975Z,12.98
2022-10-18T15:55:52.375Z,12.98
2022-10-18T15:58:20.996Z,12.92
2022-10-18T16:00:49.501Z,12.84
2022-10-18T16:03:21.023Z,12.74
2022-10-18T16:05:48.317Z,12.65
2022-10-18T16:08:24.814Z,12.62
2022-10-18T16:10:52.071Z,12.61
2022-10-18T16:13:19.082Z,12.59
2022-10-18T16:15:51.129Z,12.52
2022-10-18T16:18:20.140Z,12.44
2022-10-18T16:21:17.114Z,12.35
2022-10-18T16:23:43.743Z,12.25
2022-10-18T16:26:11.997Z,12.21
2022-10-18T16:28:42.861Z,12.12
2022-10-18T16:43:39.702Z,11.71
2022-10-18T16:46:07.782Z,11.69
2022-10-18T16:48:34.523Z,11.74
2022-10-18T16:51:04.151Z,11.65
2022-10-18T16:53:31.046Z,11.62
2022-10-18T16:55:59.931Z,11.62
2022-10-18T16:58:28.982Z,11.59
2022-10-18T17:00:56.442Z,11.62
2022-10-18T17:03:27.171Z,11.49
2022-10-18T17:05:54.258Z,11.48
2022-10-18T17:08:24.900Z,11.38
2022-10-18T17:10:54.025Z,11.28
2022-10-18T17:13:22.339Z,11.23
2022-10-18T17:15:50.130Z,11.27
2022-10-18T17:18:21.197Z,11.27
2022-10-18T17:20:49.293Z,11.20
2022-10-18T17:23:16.001Z,11.27
2022-10-18T17:25:57.858Z,11.11
2022-10-18T17:28:33.359Z,11.00
2022-10-18T17:31:00.008Z,10.96
2022-10-18T17:33:26.799Z,10.86
2022-10-18T17:35:53.505Z,10.82
2022-10-18T17:38:20.083Z,10.78
2022-10-18T17:40:46.653Z,10.75
2022-10-18T17:43:15.869Z,10.64
2022-10-18T17:45:51.172Z,10.51
2022-10-18T17:48:19.334Z,10.38
2022-10-18T17:50:46.327Z,10.30
2022-10-18T17:53:15.912Z,10.30
2022-10-18T17:55:49.229Z,10.33
2022-10-18T17:58:15.919Z,10.30
2022-10-18T18:00:48.809Z,10.29
2022-10-18T18:03:22.850Z,10.31
2022-10-18T18:05:49.447Z,10.29
2022-10-18T18:08:44.368Z,10.26
2022-10-18T18:11:11.079Z,9.93
2022-10-18T18:13:39.824Z,9.85
2022-10-18T18:16:15.352Z,9.89
2022-10-18T18:18:42.232Z,9.93
2022-10-18T18:21:15.142Z,9.95
2022-10-18T18:23:45.071Z,9.93
2022-10-18T18:26:11.914Z,9.93
2022-10-18T18:28:42.231Z,9.96
2022-10-18T18:32:04.744Z,9.91
2022-10-18T18:34:40.480Z,9.91
2022-10-18T18:37:08.095Z,9.89
2022-10-18T18:39:35.798Z,9.82
2022-10-18T18:42:04.043Z,9.79
2022-10-18T18:44:32.200Z,9.77
2022-10-18T18:46:59.070Z,9.68
2022-10-18T18:49:28.593Z,9.65
2022-10-18T18:52:15.311Z,9.52
2022-10-18T18:54:42.030Z,9.43
2022-10-18T18:57:08.559Z,9.34
2022-10-18T18:59:35.256Z,9.32
2022-10-18T19:02:01.897Z,9.28
2022-10-18T19:04:29.221Z,9.21
2022-10-18T19:06:56.067Z,9.10
2022-10-18T19:09:23.114Z,8.97
2022-10-18T19:11:56.048Z,8.91
2022-10-18T19:14:25.435Z,8.82
2022-10-18T19:16:59.206Z,8.82
2022-10-18T19:19:29.068Z,8.77
2022-10-18T19:21:58.153Z,8.81
2022-10-18T19:24:27.493Z,8.81
2022-10-18T19:26:55.382Z,8.75
2022-10-18T19:29:30.932Z,8.78
2022-10-18T19:32:00.840Z,8.77
2022-10-18T19:34:29.089Z,8.69
2022-10-18T19:36:56.097Z,8.61
2022-10-18T19:39:25.430Z,8.48
2022-10-18T19:41:57.871Z,8.56
2022-10-18T19:44:27.565Z,8.51
2022-10-18T19:46:54.972Z,8.50
2022-10-18T19:49:24.769Z,8.49
2022-10-18T19:51:51.598Z,8.40
2022-10-18T19:54:18.757Z,8.44
2022-10-18T19:56:45.654Z,8.45
2022-10-18T19:59:14.263Z,8.43
2022-10-18T20:01:41.625Z,8.39
2022-10-18T20:04:09.091Z,8.36
2022-10-18T20:06:37.067Z,8.31
2022-10-18T20:09:05.043Z,8.11
2022-10-18T20:11:32.083Z,8.10
2022-10-18T20:13:59.772Z,8.21
2022-10-18T20:16:29.745Z,8.25
2022-10-18T20:19:05.639Z,8.23
2022-10-18T20:21:35.929Z,8.11
2022-10-18T20:24:04.692Z,8.18
2022-10-18T20:26:31.785Z,8.02
2022-10-18T20:29:00.130Z,7.93
2022-10-18T20:31:34.724Z,7.89
2022-10-18T20:34:03.807Z,7.84
2022-10-18T20:36:32.284Z,7.73
2022-10-18T20:38:59.910Z,7.79
2022-10-18T20:41:29.606Z,7.79
2022-10-18T20:44:02.048Z,7.82
2022-10-18T20:46:35.259Z,7.73
2022-10-18T20:49:02.383Z,7.51
2022-10-18T20:51:29.029Z,7.57
2022-10-18T20:53:55.980Z,7.42
2022-10-18T20:56:26.555Z,7.38
2022-10-18T20:58:57.013Z,7.25
2022-10-18T21:01:26.327Z,7.25
2022-10-18T21:03:54.737Z,7.08
2022-10-18T21:06:26.088Z,7.03
2022-10-18T21:08:57.856Z,7.11
2022-10-18T21:11:26.189Z,7.11
2022-10-18T21:13:54.204Z,7.02
2022-10-18T21:16:20.961Z,7.05
2022-10-18T21:18:51.020Z,7.10
2022-10-18T21:21:24.069Z,6.99
2022-10-18T21:23:51.950Z,6.87
2022-10-18T21:26:25.128Z,6.94
2022-10-18T21:28:53.988Z,6.79
2022-10-18T21:31:26.461Z,6.78
2022-10-18T21:33:55.053Z,6.83
2022-10-18T21:36:21.733Z,6.82
2022-10-18T21:38:48.713Z,6.79
2022-10-18T21:41:17.599Z,6.84
2022-10-18T21:43:46.607Z,6.68
2022-10-18T21:46:14.571Z,6.60
2022-10-18T21:48:46.264Z,6.64
2022-10-18T21:51:14.382Z,6.68
2022-10-18T21:53:49.237Z,6.67
2022-10-18T21:56:18.063Z,6.55
2022-10-18T21:58:45.349Z,6.38
2022-10-18T22:01:21.318Z,6.42
2022-10-18T22:03:49.678Z,6.34
2022-10-18T22:06:19.901Z,6.31
2022-10-18T22:08:52.556Z,6.35
2022-10-18T22:11:22.627Z,6.28
2022-10-18T22:13:49.826Z,6.26
2022-10-18T22:16:18.524Z,6.27
2022-10-18T22:18:47.298Z,6.42
2022-10-18T22:21:16.394Z,6.55
2022-10-18T22:23:48.723Z,6.67
2022-10-18T22:26:20.957Z,6.60
2022-10-18T22:28:53.523Z,6.68
2022-10-18T22:31:23.204Z,6.68
2022-10-18T22:33:58.406Z,6.38
2022-10-18T22:36:25.330Z,6.15
2022-10-18T22:38:54.785Z,6.06
2022-10-18T22:41:21.616Z,6.08
2022-10-18T22:43:50.752Z,6.00
2022-10-18T22:46:18.184Z,5.97
2022-10-18T22:48:45.474Z,5.90
2022-10-18T22:51:15.507Z,5.91
2022-10-18T22:53:42.124Z,5.85
2022-10-18T22:56:11.709Z,5.84
2022-10-18T22:58:38.441Z,5.81
2022-10-18T23:01:07.567Z,6.01
2022-10-18T23:03:34.548Z,5.97
2022-10-18T23:06:01.239Z,5.76
2022-10-18T23:08:28.330Z,5.56
2022-10-18T23:10:59.279Z,5.44
2022-10-18T23:13:30.638Z,5.57
2022-10-18T23:16:04.699Z,5.76
2022-10-18T23:18:33.083Z,5.89
2022-10-18T23:21:05.103Z,5.98
2022-10-18T23:23:37.224Z,6.11
2022-10-18T23:26:13.039Z,6.16
2022-10-18T23:28:42.980Z,5.88
2022-10-18T23:31:12.466Z,5.63
2022-10-18T23:33:39.976Z,5.69
2022-10-18T23:36:08.147Z,5.81
2022-10-18T23:38:36.479Z,5.86
2022-10-18T23:41:03.983Z,5.92
2022-10-18T23:43:30.775Z,5.81
2022-10-18T23:45:57.511Z,5.59
2022-10-18T23:48:24.357Z,5.64
2022-10-18T23:50:51.257Z,5.74
2022-10-18T23:53:19.784Z,5.66
2022-10-18T23:56:00.829Z,5.67
2022-10-18T23:58:30.588Z,5.75
